createdAt,value
2022-10-05T00:03:44.014Z,101101.03
2022-10-05T00:08:46.692Z,101102.38
2022-10-05T00:13:49.392Z,101101.19
2022-10-05T00:18:54.030Z,101087.72
2022-10-05T00:23:57.594Z,101096.31
2022-10-05T00:29:01.167Z,101092.72
2022-10-05T00:34:03.812Z,101098.34
2022-10-05T00:39:06.458Z,101096.94
2022-10-05T00:44:42.843Z,101090.00
2022-10-05T00:50:14.861Z,101096.75
2022-10-05T00:55:40.591Z,101083.41
2022-10-05T01:01:11.402Z,101080.66
2022-10-05T01:06:35.489Z,101108.84
2022-10-05T01:11:56.912Z,101098.75
2022-10-05T01:17:05.082Z,101107.19
2022-10-05T01:22:27.886Z,101104.91
2022-10-05T01:27:42.367Z,101108.97
2022-10-05T01:32:45.216Z,101102.03
2022-10-05T01:38:09.513Z,101109.22
2022-10-05T01:43:12.114Z,101103.94
2022-10-05T01:48:39.011Z,101117.63
2022-10-05T01:54:03.484Z,101117.16
2022-10-05T01:59:44.847Z,101124.94
2022-10-05T02:05:02.000Z,101137.28
2022-10-05T02:10:12.492Z,101133.91
2022-10-05T02:15:18.730Z,101133.41
2022-10-05T02:20:31.554Z,101146.09
2022-10-05T02:25:38.350Z,101140.31
2022-10-05T02:30:52.959Z,101147.63
2022-10-05T02:36:01.731Z,101141.63
2022-10-05T02:41:22.549Z,101157.03
2022-10-05T02:46:57.211Z,101152.97
2022-10-05T02:52:21.978Z,101148.63
2022-10-05T02:57:40.475Z,101152.53
2022-10-05T03:02:51.644Z,101144.75
2022-10-05T03:08:09.482Z,101142.34
2022-10-05T03:13:30.872Z,101138.47
2022-10-05T03:18:45.507Z,101127.44
2022-10-05T03:24:49.050Z,101134.34
2022-10-05T03:30:03.552Z,101142.56
2022-10-05T03:35:17.410Z,101155.59
2022-10-05T03:40:55.916Z,101152.09
2022-10-05T03:46:17.588Z,101166.22
2022-10-05T03:51:34.909Z,101172.69
2022-10-05T03:56:44.419Z,101165.22
2022-10-05T04:02:07.496Z,101160.88
2022-10-05T04:07:22.210Z,101163.50
2022-10-05T04:12:35.185Z,101167.94
2022-10-05T04:17:44.432Z,101164.78
2022-10-05T04:23:04.910Z,101162.91
2022-10-05T04:28:12.320Z,101157.63
2022-10-05T04:33:16.126Z,101157.13
2022-10-05T04:38:30.863Z,101161.66
2022-10-05T04:43:59.706Z,101158.41
2022-10-05T04:49:20.695Z,101165.59
2022-10-05T04:54:54.034Z,101156.91
2022-10-05T05:00:05.950Z,101165.66
2022-10-05T05:06:11.980Z,101171.06
2022-10-05T05:11:24.305Z,101171.88
2022-10-05T05:16:44.786Z,101173.56
2022-10-05T05:22:18.481Z,101178.41
2022-10-05T05:27:23.754Z,101173.66
2022-10-05T05:32:46.890Z,101180.06
2022-10-05T05:38:04.516Z,101194.19
2022-10-05T05:43:22.411Z,101196.00
2022-10-05T05:48:40.100Z,101207.78
2022-10-05T05:54:13.594Z,101213.38
2022-10-05T05:59:22.699Z,101228.41
2022-10-05T06:04:31.049Z,101243.47
2022-10-05T06:09:36.727Z,101253.03
2022-10-05T06:14:57.583Z,101257.41
2022-10-05T06:20:05.430Z,101239.66
2022-10-05T06:25:12.086Z,101254.56
2022-10-05T06:30:17.099Z,101273.16
2022-10-05T06:35:43.067Z,101272.66
2022-10-05T06:41:07.855Z,101265.06
2022-10-05T06:46:18.516Z,101268.72
2022-10-05T06:51:29.431Z,101291.88
2022-10-05T06:56:46.758Z,101288.47
2022-10-05T07:02:08.242Z,101283.91
2022-10-05T07:07:19.893Z,101275.94
2022-10-05T07:12:43.768Z,101281.63
2022-10-05T07:17:46.436Z,101287.59
2022-10-05T07:22:54.913Z,101293.56
2022-10-05T07:28:08.525Z,101293.09
2022-10-05T07:33:49.720Z,101290.63
2022-10-05T07:39:09.129Z,101278.91
2022-10-05T07:44:31.469Z,101265.91
2022-10-05T07:50:04.087Z,101280.31
2022-10-05T07:55:17.778Z,101291.72
2022-10-05T08:00:22.362Z,101292.81
2022-10-05T08:05:40.725Z,101284.22
2022-10-05T08:10:59.585Z,101261.63
2022-10-05T08:16:06.531Z,101256.75
2022-10-05T08:21:12.061Z,101239.63
2022-10-05T08:26:35.109Z,101238.22
2022-10-05T08:31:41.096Z,101246.81
2022-10-05T08:36:55.862Z,101244.41
2022-10-05T08:42:49.887Z,101255.56
2022-10-05T08:48:30.250Z,101252.13
2022-10-05T08:53:38.700Z,101256.38
2022-10-05T08:59:02.491Z,101258.03
2022-10-05T09:04:17.605Z,101266.66
2022-10-05T09:09:34.154Z,101265.69
2022-10-05T09:15:01.499Z,101279.59
2022-10-05T09:20:21.403Z,101268.81
2022-10-05T09:26:05.569Z,101261.19
2022-10-05T09:31:29.281Z,101264.06
2022-10-05T09:37:09.324Z,101249.22
2022-10-05T09:42:30.514Z,101241.53
2022-10-05T09:47:45.232Z,101244.50
2022-10-05T09:53:06.323Z,101241.66
2022-10-05T09:58:23.170Z,101242.31
2022-10-05T10:03:47.036Z,101238.19
2022-10-05T10:08:53.177Z,101243.47
2022-10-05T10:14:14.462Z,101229.06
2022-10-05T10:19:32.238Z,101222.41
2022-10-05T10:25:12.342Z,101213.13
2022-10-05T10:30:43.401Z,101214.22
2022-10-05T10:36:00.492Z,101210.50
2022-10-05T10:41:27.963Z,101221.50
2022-10-05T10:46:45.317Z,101214.84
2022-10-05T10:52:16.148Z,101220.84
2022-10-05T10:57:42.974Z,101219.91
2022-10-05T11:03:27.550Z,101217.97
2022-10-05T11:08:57.934Z,101216.88
2022-10-05T11:14:06.511Z,101221.09
2022-10-05T11:20:03.255Z,101215.94
2022-10-05T11:25:09.959Z,101202.09
2022-10-05T11:30:37.410Z,101191.25
2022-10-05T11:36:18.763Z,101181.63
2022-10-05T11:41:33.797Z,101189.56
2022-10-05T11:46:39.469Z,101164.38
2022-10-05T11:51:48.554Z,101159.84
2022-10-05T11:57:08.058Z,101166.56
2022-10-05T12:02:19.730Z,101157.81
2022-10-05T12:07:28.537Z,101162.50
2022-10-05T12:12:37.893Z,101165.13
2022-10-05T12:18:06.847Z,101156.72
2022-10-05T12:23:30.574Z,101149.91
2022-10-05T12:28:38.338Z,101139.72
2022-10-05T12:33:56.926Z,101136.41
2022-10-05T12:39:21.550Z,101128.28
2022-10-05T12:44:43.109Z,101121.41
2022-10-05T12:50:15.569Z,101119.50
2022-10-05T12:55:32.333Z,101131.06
2022-10-05T13:00:40.358Z,101130.97
2022-10-05T13:06:11.092Z,101133.69
2022-10-05T13:11:20.909Z,101136.47
2022-10-05T13:16:35.241Z,101128.53
2022-10-05T13:21:50.070Z,101123.91
2022-10-05T13:26:55.146Z,101126.97
2022-10-05T13:32:04.276Z,101114.50
2022-10-05T13:37:17.446Z,101115.63
2022-10-05T13:42:37.743Z,101126.94
2022-10-05T13:47:52.218Z,101128.63
2022-10-05T13:53:25.809Z,101119.72
2022-10-05T13:58:47.457Z,101129.81
2022-10-05T14:04:24.574Z,101124.44
2022-10-05T14:09:34.008Z,101132.50
2022-10-05T14:14:47.266Z,101124.44
2022-10-05T14:19:51.877Z,101123.59
2022-10-05T14:25:07.894Z,101119.91
2022-10-05T14:30:10.491Z,101133.09
2022-10-05T14:35:20.771Z,101126.78
2022-10-05T14:40:37.688Z,101129.59
2022-10-05T14:45:54.073Z,101117.94
2022-10-05T14:50:59.446Z,101112.03
2022-10-05T14:56:29.548Z,101101.19
2022-10-05T15:01:35.849Z,101104.81
2022-10-05T15:07:05.382Z,101112.59
2022-10-05T15:12:08.293Z,101106.63
2022-10-05T15:17:17.275Z,101091.66
2022-10-05T15:22:31.800Z,101094.81
2022-10-05T15:27:53.993Z,101092.22
2022-10-05T15:33:43.274Z,101090.16
2022-10-05T15:39:00.093Z,101096.53
2022-10-05T15:44:36.956Z,101090.97
2022-10-05T15:49:50.588Z,101095.25
2022-10-05T15:55:15.112Z,101101.03
2022-10-05T16:00:20.030Z,101107.97
2022-10-05T16:05:58.114Z,101108.56
2022-10-05T16:11:01.536Z,101109.47
2022-10-05T16:16:08.079Z,101108.56
2022-10-05T16:21:30.564Z,101116.03
2022-10-05T16:26:56.610Z,101121.78
2022-10-05T16:32:19.159Z,101113.13
2022-10-05T16:37:25.717Z,101127.19
2022-10-05T16:42:35.357Z,101138.91
2022-10-05T16:48:09.958Z,101146.28
2022-10-05T16:53:18.111Z,101147.28
2022-10-05T16:58:33.054Z,101161.78
2022-10-05T17:03:57.313Z,101163.94
2022-10-05T17:09:34.745Z,101163.56
2022-10-05T17:14:43.986Z,101173.38
2022-10-05T17:19:46.690Z,101175.19
2022-10-05T17:25:12.326Z,101172.94
2022-10-05T17:30:27.284Z,101173.84
2022-10-05T17:35:56.862Z,101183.44
2022-10-05T17:41:09.969Z,101177.84
2022-10-05T17:46:12.728Z,101173.78
2022-10-05T17:51:46.715Z,101180.19
2022-10-05T17:56:49.330Z,101181.09
2022-10-05T18:02:22.412Z,101188.88
2022-10-05T18:07:25.522Z,101177.63
2022-10-05T18:12:41.009Z,101176.91
2022-10-05T18:17:57.425Z,101186.13
2022-10-05T18:23:03.112Z,101189.81
2022-10-05T18:28:42.981Z,101191.53
2022-10-05T18:34:00.864Z,101187.97
2022-10-05T18:39:41.138Z,101191.22
2022-10-05T18:44:44.559Z,101189.59
2022-10-05T18:50:02.307Z,101193.00
2022-10-05T18:55:33.970Z,101189.13
2022-10-05T19:01:21.349Z,101192.66
2022-10-05T19:06:24.633Z,101191.41
2022-10-05T19:11:38.507Z,101192.16
2022-10-05T19:17:07.393Z,101203.22
2022-10-05T19:22:28.200Z,101190.97
2022-10-05T19:27:45.972Z,101202.88
2022-10-05T19:33:17.043Z,101203.31
2022-10-05T19:38:20.360Z,101202.78
2022-10-05T19:43:38.283Z,101211.19
2022-10-05T19:48:45.564Z,101212.44
2022-10-05T19:53:50.139Z,101209.38
2022-10-05T19:58:57.639Z,101226.63
2022-10-05T20:04:00.276Z,101228.03
2022-10-05T20:09:19.413Z,101227.19
2022-10-05T20:14:33.334Z,101234.75
2022-10-05T20:19:56.246Z,101233.34
2022-10-05T20:25:01.797Z,101236.81
2022-10-05T20:30:06.128Z,101241.03
2022-10-05T20:35:08.869Z,101250.41
2022-10-05T20:40:14.919Z,101257.53
2022-10-05T20:45:17.579Z,101254.56
2022-10-05T20:50:22.268Z,101250.09
2022-10-05T20:55:31.331Z,101253.03
2022-10-05T21:00:54.022Z,101248.00
2022-10-05T21:05:56.657Z,101248.97
2022-10-05T21:10:59.481Z,101251.22
2022-10-05T21:16:02.597Z,101245.63
2022-10-05T21:21:05.386Z,101247.84
2022-10-05T21:26:08.096Z,101247.56
2022-10-05T21:31:10.773Z,101249.94
2022-10-05T21:36:17.167Z,101247.97
2022-10-05T21:41:20.584Z,101251.03
2022-10-05T21:46:26.381Z,101247.78
2022-10-05T21:51:29.260Z,101244.72
2022-10-05T21:56:35.569Z,101251.97
2022-10-05T22:01:38.429Z,101241.63
2022-10-05T22:06:41.241Z,101237.56
2022-10-05T22:11:47.765Z,101229.91
2022-10-05T22:16:50.480Z,101235.47
2022-10-05T22:21:53.232Z,101228.72
2022-10-05T22:26:56.307Z,101223.72
2022-10-05T22:31:59.006Z,101228.88
2022-10-05T22:37:03.110Z,101225.38
2022-10-05T22:42:06.990Z,101222.59
2022-10-05T22:47:09.634Z,101214.91
2022-10-05T22:52:12.506Z,101203.59
2022-10-05T23:03:32.908Z,101198.16
2022-10-05T23:08:36.604Z,101203.31
2022-10-05T23:13:40.407Z,101200.69
2022-10-05T23:18:43.609Z,101197.88
2022-10-05T23:23:48.984Z,101198.16
2022-10-05T23:28:51.678Z,101191.28
2022-10-05T23:33:54.983Z,101188.50
2022-10-05T23:38:58.065Z,101184.31
2022-10-05T23:44:00.784Z,101192.69
2022-10-05T23:49:03.597Z,101186.00
2022-10-05T23:54:06.493Z,101186.00
2022-10-05T23:59:09.142Z,101185.25
